createdAt,value
2022-11-29T00:12:46.132Z,16
2022-11-29T00:42:00.939Z,13
2022-11-29T01:11:21.013Z,16
2022-11-29T01:40:41.553Z,13
2022-11-29T02:09:59.488Z,15
2022-11-29T02:39:17.152Z,13
2022-11-29T03:08:09.996Z,13
2022-11-29T03:37:14.781Z,13
2022-11-29T04:06:27.489Z,13
2022-11-29T04:35:20.459Z,14
2022-11-29T05:04:23.376Z,19
2022-11-29T05:33:38.175Z,23
2022-11-29T06:02:29.566Z,23
2022-11-29T06:31:33.905Z,22
2022-11-29T07:00:45.219Z,23
2022-11-29T07:29:48.423Z,23
2022-11-29T07:59:06.466Z,25
2022-11-29T08:28:12.670Z,20
2022-11-29T08:57:38.901Z,22
2022-11-29T09:26:01.089Z,22
2022-11-29T09:55:23.840Z,20
2022-11-29T10:24:48.689Z,22
2022-11-29T10:54:10.234Z,31
2022-11-29T11:23:31.821Z,39
2022-11-29T11:52:51.266Z,38
2022-11-29T12:21:58.028Z,37
2022-11-29T12:51:13.416Z,34
2022-11-29T13:20:30.502Z,30
2022-11-29T13:49:49.840Z,29
2022-11-29T14:19:05.634Z,25
2022-11-29T14:48:24.638Z,29
2022-11-29T15:17:34.706Z,34
2022-11-29T15:46:43.428Z,42
2022-11-29T16:15:58.685Z,34
2022-11-29T16:45:08.995Z,39
2022-11-29T17:14:22.110Z,40
2022-11-29T17:43:36.665Z,49
2022-11-29T18:12:33.413Z,42
2022-11-29T18:41:51.016Z,50
2022-11-29T19:11:04.959Z,48
2022-11-29T19:40:16.183Z,48
2022-11-29T20:09:33.357Z,51
2022-11-29T20:38:46.568Z,50
2022-11-29T21:08:06.076Z,50
2022-11-29T21:37:24.124Z,50
2022-11-29T22:06:41.714Z,53
2022-11-29T22:36:06.098Z,50
2022-11-29T23:05:32.742Z,46
2022-11-29T23:34:28.990Z,45
